Terminal Aerodrome Forecast
Issued by NWS

Home | Current Version | Previous Version | Graphics & Text | Print | Product List | Glossary On
Versions: 1 2 3 4 5 6 7 8 9 10 11 12 13 14 15 16 17 18 19 20 21
000
FTUS43 KMPX 171700 RRA
TAFAXN
TAF
KAXN 171743Z 1718/1818 09007KT 6SM BR OVC006
     FM172000 10006KT P6SM BKN015
     FM172300 10003KT P6SM SCT015 BKN070
     FM180500 14005KT 4SM BR SCT003 OVC009 PROB30 1809/1812 4SM TSRA
      BKN008CB
     FM181600 22008KT P6SM BKN015=

USA.gov is the U.S. government's official web portal to all federal, state and local government web resources and services.